createdAt,value
2018-07-23T00:00:17.287Z,0
2018-07-23T00:01:26.149Z,0
2018-07-23T00:02:35.013Z,0
2018-07-23T00:03:43.877Z,0
2018-07-23T00:04:52.737Z,0
2018-07-23T00:06:01.600Z,0
2018-07-23T00:07:10.562Z,0
2018-07-23T00:08:19.427Z,0
2018-07-23T00:09:28.565Z,0
2018-07-23T00:10:37.432Z,0
2018-07-23T00:11:46.295Z,0
2018-07-23T00:12:55.154Z,0
2018-07-23T00:14:04.017Z,0
2018-07-23T00:15:12.878Z,0
2018-07-23T00:16:21.740Z,0
2018-07-23T00:17:30.611Z,0
2018-07-23T00:18:39.824Z,0
2018-07-23T00:19:48.961Z,0
2018-07-23T00:20:57.822Z,0
2018-07-23T00:22:06.685Z,0
2018-07-23T00:23:15.548Z,0
2018-07-23T00:24:24.692Z,0
2018-07-23T00:25:33.553Z,0
2018-07-23T00:26:42.419Z,0
2018-07-23T00:27:51.283Z,0
2018-07-23T00:29:00.427Z,0
2018-07-23T00:30:09.289Z,0
2018-07-23T00:31:18.425Z,0
2018-07-23T00:32:27.289Z,0
2018-07-23T00:33:36.439Z,0
2018-07-23T00:34:45.308Z,0
2018-07-23T00:35:54.787Z,0
2018-07-23T00:37:03.649Z,0
2018-07-23T00:38:12.511Z,0
2018-07-23T00:39:21.375Z,0
2018-07-23T00:40:30.235Z,0
2018-07-23T00:41:39.197Z,0
2018-07-23T00:42:48.057Z,0
2018-07-23T00:43:56.915Z,0
2018-07-23T00:45:05.780Z,0
2018-07-23T00:46:14.641Z,0
2018-07-23T00:47:23.854Z,0
2018-07-23T00:48:32.718Z,0
2018-07-23T00:49:41.578Z,0
2018-07-23T00:50:50.716Z,0
2018-07-23T00:51:59.578Z,0
2018-07-23T00:53:08.590Z,0
2018-07-23T00:54:17.450Z,0
2018-07-23T00:55:26.314Z,0
2018-07-23T00:56:35.174Z,0
2018-07-23T00:57:44.311Z,0
2018-07-23T00:58:53.173Z,0
2018-07-23T01:00:02.038Z,0
2018-07-23T01:01:11.174Z,0
2018-07-23T01:02:20.036Z,0
2018-07-23T01:03:28.897Z,0
2018-07-23T01:04:37.906Z,0
2018-07-23T01:05:46.770Z,0
2018-07-23T01:06:55.633Z,0
2018-07-23T01:08:04.493Z,0
2018-07-23T01:09:13.357Z,0
2018-07-23T01:10:22.572Z,0
2018-07-23T01:11:31.434Z,0
2018-07-23T01:12:40.295Z,0
2018-07-23T01:13:49.160Z,0
2018-07-23T01:14:58.025Z,0
2018-07-23T01:16:07.314Z,0
2018-07-23T01:17:16.176Z,0
2018-07-23T01:18:25.037Z,0
2018-07-23T01:19:33.899Z,0
2018-07-23T01:20:42.760Z,0
2018-07-23T01:21:51.972Z,0
2018-07-23T01:23:00.835Z,0
2018-07-23T01:24:09.694Z,0
2018-07-23T01:25:18.553Z,0
2018-07-23T01:26:27.415Z,0
2018-07-23T01:27:36.728Z,0
2018-07-23T01:28:45.589Z,0
2018-07-23T01:29:54.455Z,0
2018-07-23T01:31:03.317Z,0
2018-07-23T01:32:12.455Z,0
2018-07-23T01:33:21.317Z,0
2018-07-23T01:34:30.185Z,0
2018-07-23T01:35:39.048Z,0
2018-07-23T01:36:47.912Z,0
2018-07-23T01:37:56.777Z,0
2018-07-23T01:39:05.917Z,0
2018-07-23T01:40:14.776Z,0
2018-07-23T01:41:23.639Z,0
2018-07-23T01:42:32.499Z,0
2018-07-23T01:43:41.682Z,0
2018-07-23T01:44:50.502Z,0
2018-07-23T01:45:59.648Z,0
2018-07-23T01:47:08.511Z,0
2018-07-23T01:48:17.374Z,0
2018-07-23T01:49:26.236Z,0
2018-07-23T01:50:35.247Z,0
2018-07-23T01:51:44.107Z,0
2018-07-23T01:52:52.971Z,0
2018-07-23T01:54:01.831Z,0
2018-07-23T01:55:10.973Z,0
2018-07-23T01:56:19.932Z,0
2018-07-23T01:57:29.074Z,0
2018-07-23T01:58:37.936Z,0
2018-07-23T01:59:46.796Z,0
2018-07-23T02:00:55.661Z,0
2018-07-23T02:02:04.957Z,0
2018-07-23T02:03:13.819Z,0
2018-07-23T02:04:22.680Z,0
2018-07-23T02:05:31.817Z,0
2018-07-23T02:06:40.681Z,0
2018-07-23T02:07:49.690Z,0
2018-07-23T02:08:58.551Z,0
2018-07-23T02:10:07.412Z,0
2018-07-23T02:11:16.275Z,0
2018-07-23T02:12:25.134Z,0
2018-07-23T02:13:33.995Z,0
2018-07-23T02:14:42.857Z,0
2018-07-23T02:15:51.718Z,0
2018-07-23T02:17:01.137Z,0
2018-07-23T02:18:10.042Z,0
2018-07-23T02:19:18.862Z,0
2018-07-23T02:20:27.731Z,0
2018-07-23T02:21:36.602Z,0
2018-07-23T02:22:45.450Z,0
2018-07-23T02:23:54.311Z,0
2018-07-23T02:25:03.322Z,0
2018-07-23T02:26:12.460Z,0
2018-07-23T02:27:21.321Z,0
2018-07-23T02:28:30.184Z,0
2018-07-23T02:29:39.323Z,0
2018-07-23T02:30:48.461Z,0
2018-07-23T02:31:57.602Z,0
2018-07-23T02:33:06.463Z,0
2018-07-23T02:34:15.329Z,0
2018-07-23T02:35:24.469Z,0
2018-07-23T02:36:33.437Z,0
2018-07-23T02:37:42.584Z,0
2018-07-23T02:38:51.445Z,0
2018-07-23T02:40:00.856Z,0
2018-07-23T02:41:10.005Z,0
2018-07-23T02:42:19.490Z,0
2018-07-23T02:43:28.353Z,0
2018-07-23T02:44:37.216Z,0
2018-07-23T02:45:46.074Z,0
2018-07-23T02:46:54.943Z,0
2018-07-23T02:48:03.953Z,0
2018-07-23T02:49:13.095Z,0
2018-07-23T02:50:21.960Z,4
2018-07-23T02:51:31.378Z,4
2018-07-23T02:52:40.244Z,0
2018-07-23T02:53:49.403Z,0
2018-07-23T02:54:58.539Z,4
2018-07-23T02:56:07.406Z,4
2018-07-23T02:57:16.824Z,4
2018-07-23T02:58:25.691Z,4
2018-07-23T02:59:34.709Z,4
2018-07-23T03:00:43.565Z,4
2018-07-23T03:02:24.491Z,8
2018-07-23T03:03:34.181Z,8
2018-07-23T03:04:43.141Z,8
2018-07-23T03:05:52.006Z,12
2018-07-23T03:07:01.426Z,16
2018-07-23T03:08:10.572Z,16
2018-07-23T03:09:19.433Z,16
2018-07-23T03:10:28.344Z,16
2018-07-23T03:11:37.205Z,20
2018-07-23T03:12:46.625Z,24
2018-07-23T03:13:55.487Z,24
2018-07-23T03:15:04.649Z,28
2018-07-23T03:16:13.512Z,36
2018-07-23T03:17:23.206Z,40
2018-07-23T03:18:32.343Z,44
2018-07-23T03:19:41.484Z,52
2018-07-23T03:20:50.635Z,56
2018-07-23T03:21:59.840Z,60
2018-07-23T03:23:08.661Z,64
2018-07-23T03:24:17.805Z,72
2018-07-23T03:25:27.215Z,80
2018-07-23T03:26:36.357Z,88
2018-07-23T03:27:46.224Z,96
2018-07-23T03:28:55.363Z,104
2018-07-23T03:30:04.555Z,116
2018-07-23T03:31:13.982Z,124
2018-07-23T03:32:22.854Z,132
2018-07-23T03:33:31.717Z,144
2018-07-23T03:34:40.580Z,156
2018-07-23T03:35:49.720Z,164
2018-07-23T03:36:58.861Z,172
2018-07-23T03:38:07.722Z,188
2018-07-23T03:39:16.687Z,200
2018-07-23T03:40:26.110Z,212
2018-07-23T03:41:34.972Z,224
2018-07-23T03:42:43.831Z,236
2018-07-23T03:43:52.692Z,252
2018-07-23T03:45:01.555Z,264
2018-07-23T03:46:10.687Z,280
2018-07-23T03:47:19.552Z,292
2018-07-23T03:48:28.414Z,308
2018-07-23T03:49:37.825Z,324
2018-07-23T03:50:47.040Z,336
2018-07-23T03:51:55.903Z,352
2018-07-23T03:53:05.041Z,368
2018-07-23T03:54:13.899Z,380
2018-07-23T03:55:22.764Z,396
2018-07-23T03:56:31.621Z,412
2018-07-23T03:57:40.482Z,424
2018-07-23T03:58:49.343Z,440
2018-07-23T03:59:58.207Z,452
2018-07-23T04:01:07.067Z,468
2018-07-23T04:02:16.355Z,484
2018-07-23T04:03:25.226Z,500
2018-07-23T04:04:34.351Z,516
2018-07-23T04:05:43.214Z,532
2018-07-23T04:06:52.355Z,552
2018-07-23T04:08:01.644Z,568
2018-07-23T04:09:10.502Z,584
2018-07-23T04:10:19.364Z,600
2018-07-23T04:11:28.225Z,620
2018-07-23T04:12:37.104Z,636
2018-07-23T04:13:46.113Z,656
2018-07-23T04:14:54.974Z,672
2018-07-23T04:16:04.114Z,692
2018-07-23T04:17:12.974Z,708
2018-07-23T04:18:21.839Z,724
2018-07-23T04:19:31.050Z,744
2018-07-23T04:20:39.915Z,760
2018-07-23T04:21:48.773Z,776
2018-07-23T04:22:57.912Z,796
2018-07-23T04:24:06.773Z,812
2018-07-23T04:25:15.636Z,832
2018-07-23T04:26:24.773Z,856
2018-07-23T04:27:33.633Z,880
2018-07-23T04:28:42.494Z,896
2018-07-23T04:29:51.355Z,912
2018-07-23T04:31:00.218Z,932
2018-07-23T04:32:09.080Z,956
2018-07-23T04:33:17.941Z,972
2018-07-23T04:34:26.801Z,1000
2018-07-23T04:35:35.660Z,1040
2018-07-23T04:36:44.522Z,1092
2018-07-23T04:37:53.703Z,1156
2018-07-23T04:39:02.560Z,1212
2018-07-23T04:40:11.422Z,1236
2018-07-23T04:41:20.284Z,1244
2018-07-23T04:42:29.150Z,1256
2018-07-23T04:43:38.282Z,1264
2018-07-23T04:44:47.143Z,1244
2018-07-23T04:45:56.004Z,1252
2018-07-23T04:47:05.145Z,1304
2018-07-23T04:48:14.108Z,1352
2018-07-23T04:49:23.037Z,1416
2018-07-23T04:50:32.497Z,1376
2018-07-23T04:51:41.889Z,1304
2018-07-23T04:52:50.749Z,1272
2018-07-23T04:53:59.888Z,1264
2018-07-23T04:55:08.748Z,1264
2018-07-23T04:56:17.612Z,1284
2018-07-23T04:57:26.473Z,1296
2018-07-23T04:58:35.334Z,1312
2018-07-23T04:59:44.197Z,1324
2018-07-23T05:00:53.337Z,1336
2018-07-23T05:02:02.203Z,1328
2018-07-23T05:03:11.061Z,1336
2018-07-23T05:04:19.924Z,1356
2018-07-23T05:05:28.784Z,1376
2018-07-23T05:06:37.923Z,1392
2018-07-23T05:07:46.784Z,1392
2018-07-23T05:08:55.923Z,1404
2018-07-23T05:10:04.792Z,1412
2018-07-23T05:11:13.656Z,1428
2018-07-23T05:12:22.791Z,1452
2018-07-23T05:13:31.653Z,1480
2018-07-23T05:14:40.514Z,1540
2018-07-23T05:15:49.377Z,1672
2018-07-23T05:16:58.591Z,1912
2018-07-23T05:18:07.730Z,2244
2018-07-23T05:19:16.591Z,2488
2018-07-23T05:20:25.451Z,2704
2018-07-23T05:21:34.317Z,2616
2018-07-23T05:22:43.526Z,2720
2018-07-23T05:23:52.694Z,2796
2018-07-23T05:25:02.547Z,2784
2018-07-23T05:26:11.426Z,2296
2018-07-23T05:27:20.273Z,1904
2018-07-23T05:28:29.135Z,1752
2018-07-23T05:29:37.999Z,1908
2018-07-23T05:30:46.861Z,1784
2018-07-23T05:31:55.725Z,1904
2018-07-23T05:33:04.861Z,2004
2018-07-23T05:34:14.101Z,1784
2018-07-23T05:35:22.966Z,1640
2018-07-23T05:36:31.829Z,1696
2018-07-23T05:37:40.691Z,1648
2018-07-23T05:38:49.553Z,1596
2018-07-23T05:39:58.845Z,1648
2018-07-23T05:41:07.992Z,1660
2018-07-23T05:42:16.852Z,1692
2018-07-23T05:43:25.720Z,1664
2018-07-23T05:44:34.735Z,1704
2018-07-23T05:45:43.600Z,1856
2018-07-23T05:46:52.735Z,1920
2018-07-23T05:48:01.597Z,1804
2018-07-23T05:49:10.458Z,1752
2018-07-23T05:50:19.594Z,1748
2018-07-23T05:51:28.457Z,1728
2018-07-23T05:52:37.320Z,1700
2018-07-23T05:53:46.184Z,1764
2018-07-23T05:54:55.047Z,1764
2018-07-23T05:56:04.187Z,1720
2018-07-23T05:57:13.200Z,1748
2018-07-23T05:58:22.065Z,1672
2018-07-23T05:59:30.928Z,1700
2018-07-23T06:00:40.073Z,1856
2018-07-23T06:01:49.214Z,1876
2018-07-23T06:02:58.357Z,1748
2018-07-23T06:04:07.501Z,1644
2018-07-23T06:05:16.375Z,1760
2018-07-23T06:06:25.302Z,1920
2018-07-23T06:07:34.102Z,1988
2018-07-23T06:08:42.960Z,1992
2018-07-23T06:09:51.825Z,1976
2018-07-23T06:11:00.690Z,2048
2018-07-23T06:12:09.559Z,2060
2018-07-23T06:13:18.417Z,2084
2018-07-23T06:14:27.630Z,2116
2018-07-23T06:15:36.769Z,2112
2018-07-23T06:16:45.628Z,1976
2018-07-23T06:17:55.047Z,1808
2018-07-23T06:19:03.911Z,1776
2018-07-23T06:20:12.771Z,1800
2018-07-23T06:21:21.636Z,1928
2018-07-23T06:22:30.499Z,2044
2018-07-23T06:23:39.644Z,1988
2018-07-23T06:24:48.783Z,1960
2018-07-23T06:25:57.800Z,1960
2018-07-23T06:27:06.663Z,1956
2018-07-23T06:28:15.525Z,1860
2018-07-23T06:29:24.388Z,1788
2018-07-23T06:30:33.635Z,1776
2018-07-23T06:31:42.501Z,1764
2018-07-23T06:32:51.640Z,1716
2018-07-23T06:34:00.793Z,1732
2018-07-23T06:35:09.936Z,1796
2018-07-23T06:36:19.080Z,1804
2018-07-23T06:37:28.382Z,1832
2018-07-23T06:38:37.224Z,1844
2018-07-23T06:39:46.088Z,1844
2018-07-23T06:40:54.951Z,1864
2018-07-23T06:42:03.812Z,1876
2018-07-23T06:43:12.699Z,1880
2018-07-23T06:44:21.540Z,1912
2018-07-23T06:45:30.404Z,1944
2018-07-23T06:46:39.551Z,1940
2018-07-23T06:47:48.413Z,1880
2018-07-23T06:48:57.651Z,1932
2018-07-23T06:50:06.517Z,1912
2018-07-23T06:51:15.379Z,1888
2018-07-23T06:52:24.241Z,1888
2018-07-23T06:53:33.106Z,1896
2018-07-23T06:54:41.970Z,1888
2018-07-23T06:55:50.831Z,1884
2018-07-23T06:56:59.969Z,1880
2018-07-23T06:58:08.832Z,1864
2018-07-23T06:59:17.705Z,1864
2018-07-23T07:00:26.576Z,1888
2018-07-23T07:01:35.713Z,1916
2018-07-23T07:02:44.579Z,1924
2018-07-23T07:03:53.723Z,1924
2018-07-23T07:05:02.588Z,1924
2018-07-23T07:06:11.454Z,1900
2018-07-23T07:07:20.317Z,1864
2018-07-23T07:08:29.184Z,1856
2018-07-23T07:09:38.051Z,1844
2018-07-23T07:10:47.475Z,1852
2018-07-23T07:11:56.332Z,1844
2018-07-23T07:13:05.209Z,1836
2018-07-23T07:14:14.063Z,1836
2018-07-23T07:15:22.930Z,1840
2018-07-23T07:16:31.789Z,1844
2018-07-23T07:17:40.651Z,1836
2018-07-23T07:18:49.514Z,1820
2018-07-23T07:19:58.398Z,1808
2018-07-23T07:21:07.249Z,1804
2018-07-23T07:22:16.109Z,1804
2018-07-23T07:23:25.124Z,1812
2018-07-23T07:24:33.988Z,1808
2018-07-23T07:25:43.132Z,1824
2018-07-23T07:26:51.995Z,1836
2018-07-23T07:28:00.865Z,1840
2018-07-23T07:29:10.353Z,1848
2018-07-23T07:30:19.216Z,1864
2018-07-23T07:31:28.080Z,1884
2018-07-23T07:32:36.945Z,1880
2018-07-23T07:33:45.810Z,1928
2018-07-23T07:34:54.741Z,1916
2018-07-23T07:36:03.544Z,1924
2018-07-23T07:37:12.405Z,1928
2018-07-23T07:38:21.906Z,1916
2018-07-23T07:39:30.756Z,1904
2018-07-23T07:40:39.618Z,1892
2018-07-23T07:41:48.484Z,1892
2018-07-23T07:42:57.624Z,1872
2018-07-23T07:44:06.848Z,1860
2018-07-23T07:45:15.775Z,1848
2018-07-23T07:46:24.665Z,1836
2018-07-23T07:47:33.829Z,1800
2018-07-23T07:48:42.694Z,1844
2018-07-23T07:49:51.556Z,1856
2018-07-23T07:51:00.698Z,1860
2018-07-23T07:52:09.574Z,1816
2018-07-23T07:53:18.439Z,1848
2018-07-23T07:54:27.581Z,1716
2018-07-23T07:55:36.724Z,1812
2018-07-23T07:56:45.862Z,1872
2018-07-23T07:57:54.725Z,1884
2018-07-23T07:59:03.650Z,1888
2018-07-23T08:00:12.467Z,1896
2018-07-23T08:01:21.341Z,1908
2018-07-23T08:02:30.220Z,1912
2018-07-23T08:03:39.095Z,1956
2018-07-23T08:04:47.969Z,1996
2018-07-23T08:05:56.982Z,2028
2018-07-23T08:07:06.202Z,2028
2018-07-23T08:08:15.389Z,2044
2018-07-23T08:09:24.250Z,2004
2018-07-23T08:10:33.114Z,1984
2018-07-23T08:11:42.131Z,1968
2018-07-23T08:12:51.094Z,2004
2018-07-23T08:13:59.959Z,2044
2018-07-23T08:15:09.102Z,2072
2018-07-23T08:16:17.996Z,2084
2018-07-23T08:17:26.981Z,2108
2018-07-23T08:18:36.109Z,2124
2018-07-23T08:19:45.248Z,2132
2018-07-23T08:20:54.118Z,2136
2018-07-23T08:22:03.258Z,2096
2018-07-23T08:23:12.122Z,2072
2018-07-23T08:24:21.022Z,2096
2018-07-23T08:25:29.907Z,2092
2018-07-23T08:26:38.772Z,2096
2018-07-23T08:27:47.670Z,2112
2018-07-23T08:28:57.545Z,2136
2018-07-23T08:30:06.413Z,2092
2018-07-23T08:31:15.279Z,2092
2018-07-23T08:32:24.353Z,2108
2018-07-23T08:33:33.535Z,2120
2018-07-23T08:34:42.422Z,2124
2018-07-23T08:35:51.576Z,2116
2018-07-23T08:37:00.995Z,2128
2018-07-23T08:38:09.866Z,2144
2018-07-23T08:39:18.726Z,2184
2018-07-23T08:40:27.785Z,2208
2018-07-23T08:41:36.676Z,2228
2018-07-23T08:42:45.536Z,2316
2018-07-23T08:43:54.401Z,2420
2018-07-23T08:45:03.827Z,2484
2018-07-23T08:46:13.444Z,2408
2018-07-23T08:47:22.320Z,2376
2018-07-23T08:48:31.201Z,2400
2018-07-23T08:49:40.399Z,2356
2018-07-23T08:50:49.260Z,2284
2018-07-23T08:51:58.173Z,2280
2018-07-23T08:53:07.047Z,2272
2018-07-23T08:54:15.914Z,2284
2018-07-23T08:55:24.851Z,2284
2018-07-23T08:56:33.719Z,2284
2018-07-23T08:57:42.591Z,2296
2018-07-23T08:58:51.459Z,2292
2018-07-23T09:00:00.332Z,2292
2018-07-23T09:01:09.207Z,2320
2018-07-23T09:02:18.125Z,2336
2018-07-23T09:03:27.089Z,2352
2018-07-23T09:04:35.991Z,2396
2018-07-23T09:05:45.196Z,2416
2018-07-23T09:06:54.066Z,2428
2018-07-23T09:08:02.930Z,2404
2018-07-23T09:09:11.796Z,2500
2018-07-23T09:10:20.662Z,2720
2018-07-23T09:11:29.527Z,2472
2018-07-23T09:12:38.669Z,2320
2018-07-23T09:13:47.811Z,2540
2018-07-23T09:14:56.776Z,2592
2018-07-23T09:16:05.641Z,2616
2018-07-23T09:17:14.839Z,2644
2018-07-23T09:18:23.648Z,2652
2018-07-23T09:19:32.791Z,2644
2018-07-23T09:20:41.657Z,2704
2018-07-23T09:21:50.803Z,2788
2018-07-23T09:22:59.667Z,2728
2018-07-23T09:24:08.542Z,2716
2018-07-23T09:25:17.406Z,2704
2018-07-23T09:26:26.623Z,2712
2018-07-23T09:27:35.488Z,2716
2018-07-23T09:28:44.638Z,2720
2018-07-23T09:29:53.501Z,2708
2018-07-23T09:31:02.373Z,2700
2018-07-23T09:32:11.670Z,2732
2018-07-23T09:33:20.815Z,2736
2018-07-23T09:34:29.684Z,2692
2018-07-23T09:35:38.834Z,2684
2018-07-23T09:36:47.703Z,2708
2018-07-23T09:37:56.569Z,2704
2018-07-23T09:39:05.438Z,2688
2018-07-23T09:40:14.304Z,2692
2018-07-23T09:41:23.459Z,2728
2018-07-23T09:42:32.325Z,2796
2018-07-23T09:43:41.194Z,2828
2018-07-23T09:44:50.338Z,2844
2018-07-23T09:45:59.799Z,2812
2018-07-23T09:47:09.679Z,2780
2018-07-23T09:48:18.881Z,2764
2018-07-23T09:49:28.117Z,2796
2018-07-23T09:50:37.419Z,2832
2018-07-23T09:51:46.592Z,2848
2018-07-23T09:52:55.896Z,2848
2018-07-23T09:54:05.182Z,2864
2018-07-23T09:55:14.198Z,2872
2018-07-23T09:56:23.062Z,2900
2018-07-23T09:57:31.927Z,2924
2018-07-23T09:58:40.826Z,2928
2018-07-23T09:59:49.693Z,2924
2018-07-23T10:00:58.911Z,2920
2018-07-23T10:02:07.778Z,2888
2018-07-23T10:03:16.753Z,2836
2018-07-23T10:04:26.409Z,2816
2018-07-23T10:05:35.275Z,2816
2018-07-23T10:06:44.727Z,2832
2018-07-23T10:07:53.592Z,2860
2018-07-23T10:09:02.464Z,2876
2018-07-23T10:10:11.330Z,2828
2018-07-23T10:11:20.209Z,2744
2018-07-23T10:12:29.098Z,2660
2018-07-23T10:13:37.964Z,2624
2018-07-23T10:14:47.105Z,2600
2018-07-23T10:15:55.975Z,2576
2018-07-23T10:17:04.842Z,2576
2018-07-23T10:18:13.924Z,2576
2018-07-23T10:19:23.069Z,2564
2018-07-23T10:20:31.935Z,2548
2018-07-23T10:21:41.074Z,2524
2018-07-23T10:22:49.937Z,2520
2018-07-23T10:23:58.815Z,2532
2018-07-23T10:25:07.688Z,2544
2018-07-23T10:26:16.551Z,2564
2018-07-23T10:27:25.433Z,2572
2018-07-23T10:28:34.304Z,2584
2018-07-23T10:29:43.517Z,2592
2018-07-23T10:30:52.382Z,2584
2018-07-23T10:32:01.250Z,2560
2018-07-23T10:33:10.115Z,2544
2018-07-23T10:34:18.982Z,2552
2018-07-23T10:35:28.200Z,2576
2018-07-23T10:36:37.362Z,2588
2018-07-23T10:37:46.230Z,2604
2018-07-23T10:38:55.095Z,2616
2018-07-23T10:40:04.243Z,2616
2018-07-23T10:41:13.466Z,2612
2018-07-23T10:42:22.277Z,2616
2018-07-23T10:43:31.148Z,2640
2018-07-23T10:44:40.296Z,2660
2018-07-23T10:45:49.165Z,2664
2018-07-23T10:46:58.030Z,2672
2018-07-23T10:48:06.900Z,2704
2018-07-23T10:49:16.317Z,2760
2018-07-23T10:50:25.184Z,2784
2018-07-23T10:51:34.050Z,2812
2018-07-23T10:52:43.071Z,2840
2018-07-23T10:53:52.212Z,2840
2018-07-23T10:55:01.081Z,2840
2018-07-23T10:56:09.950Z,2840
2018-07-23T10:57:18.833Z,2840
2018-07-23T10:58:28.252Z,2832
2018-07-23T10:59:37.118Z,2808
2018-07-23T11:00:45.997Z,2792
2018-07-23T11:01:55.002Z,2760
2018-07-23T11:03:04.541Z,2740
2018-07-23T11:04:13.928Z,2748
2018-07-23T11:05:23.392Z,2760
2018-07-23T11:06:32.257Z,2776
2018-07-23T11:07:41.136Z,2796
2018-07-23T11:08:50.064Z,2776
2018-07-23T11:09:59.002Z,2768
2018-07-23T11:11:07.870Z,2796
2018-07-23T11:12:16.775Z,2836
2018-07-23T11:13:25.663Z,2864
2018-07-23T11:14:34.537Z,2868
2018-07-23T11:15:44.057Z,2860
2018-07-23T11:16:52.931Z,2864
2018-07-23T11:18:01.804Z,2880
2018-07-23T11:19:10.719Z,2912
2018-07-23T11:20:19.836Z,2956
2018-07-23T11:21:28.981Z,3000
2018-07-23T11:22:37.913Z,3024
2018-07-23T11:23:46.779Z,3052
2018-07-23T11:24:55.756Z,3072
2018-07-23T11:26:04.809Z,3084
2018-07-23T11:27:13.826Z,3108
2018-07-23T11:28:22.790Z,3672
2018-07-23T11:29:31.664Z,3732
2018-07-23T11:30:40.867Z,3804
2018-07-23T11:31:50.007Z,3864
2018-07-23T11:32:59.148Z,3908
2018-07-23T11:34:08.013Z,3960
2018-07-23T11:35:16.883Z,3968
2018-07-23T11:36:25.778Z,3980
2018-07-23T11:37:34.642Z,3996
2018-07-23T11:38:43.865Z,4028
2018-07-23T11:39:52.725Z,4060
2018-07-23T11:41:01.593Z,4104
2018-07-23T11:42:10.458Z,4144
2018-07-23T11:43:19.325Z,4204
2018-07-23T11:44:28.752Z,4236
2018-07-23T11:45:37.623Z,4268
2018-07-23T11:46:46.491Z,4264
2018-07-23T11:47:55.362Z,4272
2018-07-23T11:49:04.229Z,4280
2018-07-23T11:50:13.097Z,4308
2018-07-23T11:51:22.516Z,4348
2018-07-23T11:52:31.385Z,4416
2018-07-23T11:53:40.259Z,4500
2018-07-23T11:54:49.127Z,4636
2018-07-23T11:55:58.147Z,4824
2018-07-23T11:57:07.031Z,5040
2018-07-23T11:58:15.887Z,5296
2018-07-23T11:59:25.036Z,5536
2018-07-23T12:00:34.186Z,5848
2018-07-23T12:01:43.374Z,7084
2018-07-23T12:02:52.201Z,42976
2018-07-23T12:04:01.069Z,77536
2018-07-23T12:05:09.947Z,76704
2018-07-23T12:06:18.826Z,75744
2018-07-23T12:07:27.805Z,72544
2018-07-23T12:08:36.679Z,75808
2018-07-23T12:09:45.549Z,76800
2018-07-23T12:10:54.422Z,79104
2018-07-23T12:12:03.293Z,79488
2018-07-23T12:13:12.315Z,79584
2018-07-23T12:14:21.188Z,81248
2018-07-23T12:15:30.062Z,81056
2018-07-23T12:16:39.212Z,80288
2018-07-23T12:17:48.087Z,86464
2018-07-23T12:18:57.059Z,83296
2018-07-23T12:20:05.934Z,79968
2018-07-23T12:21:15.090Z,81312
2018-07-23T12:22:23.967Z,80672
2018-07-23T12:23:32.842Z,82784
2018-07-23T12:24:42.068Z,84160
2018-07-23T12:25:51.234Z,85472
2018-07-23T12:27:00.105Z,84352
2018-07-23T12:28:09.253Z,82496
2018-07-23T12:29:18.126Z,77056
2018-07-23T12:30:27.002Z,80320
2018-07-23T12:31:35.881Z,86368
2018-07-23T12:32:44.757Z,87360
2018-07-23T12:33:53.635Z,83616
2018-07-23T12:35:02.509Z,83040
2018-07-23T12:36:11.662Z,76320
2018-07-23T12:37:20.561Z,93024
2018-07-23T12:38:29.447Z,97440
2018-07-23T12:39:38.734Z,93408
2018-07-23T12:40:47.575Z,94656
2018-07-23T12:41:56.726Z,79392
2018-07-23T12:43:05.917Z,83584
2018-07-23T12:44:15.249Z,77952
2018-07-23T12:45:24.441Z,71584
2018-07-23T12:46:33.598Z,72768
2018-07-23T12:47:42.922Z,60800
2018-07-23T12:48:52.470Z,58784
2018-07-23T12:50:01.350Z,56832
2018-07-23T12:51:10.228Z,49376
2018-07-23T12:52:19.652Z,48000
2018-07-23T12:53:28.960Z,50560
2018-07-23T12:54:37.839Z,65792
2018-07-23T12:55:46.997Z,73088
2018-07-23T12:56:56.166Z,77568
2018-07-23T12:58:05.047Z,72928
2018-07-23T12:59:14.300Z,78816
2018-07-23T13:00:23.193Z,85856
2018-07-23T13:01:32.085Z,84320
2018-07-23T13:02:40.973Z,82368
2018-07-23T13:03:50.139Z,86752
2018-07-23T13:04:59.023Z,83328
2018-07-23T13:06:08.213Z,77120
2018-07-23T13:07:17.112Z,78848
2018-07-23T13:08:25.994Z,82368
2018-07-23T13:10:08.519Z,75584
2018-07-23T13:11:18.642Z,80320
2018-07-23T13:12:27.725Z,81312
2018-07-23T13:13:36.605Z,86208
2018-07-23T13:14:45.502Z,82560
2018-07-23T13:15:54.417Z,79552
2018-07-23T13:17:03.301Z,81248
2018-07-23T13:18:12.183Z,85760
2018-07-23T13:19:21.490Z,84640
2018-07-23T13:20:30.370Z,81664
2018-07-23T13:21:39.251Z,86016
2018-07-23T13:22:48.424Z,82240
2018-07-23T13:23:57.585Z,83616
2018-07-23T13:25:06.468Z,87104
2018-07-23T13:26:15.369Z,86304
2018-07-23T13:27:24.254Z,86144
2018-07-23T13:28:33.410Z,87872
2018-07-23T13:29:42.291Z,89504
2018-07-23T13:30:51.173Z,90752
2018-07-23T13:32:00.053Z,90272
2018-07-23T13:33:08.937Z,88480
2018-07-23T13:34:17.821Z,88704
2018-07-23T13:35:26.984Z,88448
2018-07-23T13:36:35.869Z,87680
2018-07-23T13:37:45.035Z,88384
2018-07-23T13:38:53.918Z,90976
2018-07-23T13:40:02.800Z,86592
2018-07-23T13:41:11.682Z,85248
2018-07-23T13:42:20.841Z,87168
2018-07-23T13:43:29.723Z,85536
2018-07-23T13:44:38.877Z,87424
2018-07-23T13:45:47.858Z,90144
2018-07-23T13:46:56.745Z,88992
2018-07-23T13:48:05.626Z,86048
2018-07-23T13:49:14.785Z,87616
2018-07-23T13:50:23.942Z,89088
2018-07-23T13:51:32.935Z,86784
2018-07-23T13:52:41.820Z,89568
2018-07-23T13:53:50.977Z,87872
2018-07-23T13:55:00.134Z,80352
2018-07-23T13:56:09.293Z,77632
2018-07-23T13:57:18.177Z,78560
2018-07-23T13:58:27.060Z,81600
2018-07-23T13:59:35.942Z,86272
2018-07-23T14:00:44.823Z,82560
2018-07-23T14:01:53.707Z,84800
2018-07-23T14:03:03.012Z,86528
2018-07-23T14:04:11.897Z,83616
2018-07-23T14:05:20.779Z,82496
2018-07-23T14:06:29.703Z,88704
2018-07-23T14:07:38.548Z,91328
2018-07-23T14:08:47.781Z,90464
2018-07-23T14:09:56.940Z,90336
2018-07-23T14:11:05.835Z,91072
2018-07-23T14:12:14.998Z,88992
2018-07-23T14:13:23.875Z,87744
2018-07-23T14:14:33.115Z,87168
2018-07-23T14:15:42.279Z,85184
2018-07-23T14:16:51.171Z,84032
2018-07-23T14:18:00.059Z,86400
2018-07-23T14:19:08.943Z,85728
2018-07-23T14:20:17.826Z,83104
2018-07-23T14:21:26.709Z,84448
2018-07-23T14:22:35.595Z,85280
2018-07-23T14:23:44.765Z,86624
2018-07-23T14:24:53.645Z,82016
2018-07-23T14:26:02.531Z,82304
2018-07-23T14:27:11.416Z,83808
2018-07-23T14:28:20.577Z,85408
2018-07-23T14:29:29.762Z,87712
2018-07-23T14:30:38.936Z,86144
2018-07-23T14:31:48.100Z,82144
2018-07-23T14:32:56.985Z,82144
2018-07-23T14:34:05.872Z,83296
2018-07-23T14:35:14.759Z,83072
2018-07-23T14:36:23.917Z,76256
2018-07-23T14:37:32.798Z,75680
2018-07-23T14:38:42.403Z,79424
2018-07-23T14:39:51.213Z,78816
2018-07-23T14:41:00.381Z,78208
2018-07-23T14:42:09.267Z,80832
2018-07-23T14:43:18.151Z,79200
2018-07-23T14:44:27.035Z,77952
2018-07-23T14:45:35.920Z,79360
2018-07-23T14:46:44.822Z,81440
2018-07-23T14:47:53.710Z,82304
2018-07-23T14:49:02.588Z,81120
2018-07-23T14:50:11.480Z,81664
2018-07-23T14:51:20.708Z,80768
2018-07-23T14:52:29.592Z,78688
2018-07-23T14:53:38.477Z,81184
2018-07-23T14:54:47.642Z,82080
2018-07-23T14:55:56.811Z,81664
2018-07-23T14:57:05.974Z,81120
2018-07-23T14:58:15.142Z,81536
2018-07-23T14:59:24.026Z,81600
2018-07-23T15:00:32.911Z,80384
2018-07-23T15:01:42.549Z,79200
2018-07-23T15:02:51.430Z,79328
2018-07-23T15:04:00.599Z,79392
2018-07-23T15:05:09.788Z,78816
2018-07-23T15:06:18.676Z,85120
2018-07-23T15:07:27.918Z,81952
2018-07-23T15:08:36.812Z,81152
2018-07-23T15:09:45.972Z,81152
2018-07-23T15:10:55.131Z,79744
2018-07-23T15:12:04.016Z,78720
2018-07-23T15:13:12.902Z,76512
2018-07-23T15:14:22.065Z,75520
2018-07-23T15:15:30.950Z,78976
2018-07-23T15:16:40.326Z,79040
2018-07-23T15:17:49.105Z,77600
2018-07-23T15:18:57.992Z,76128
2018-07-23T15:20:06.873Z,74016
2018-07-23T15:21:16.033Z,75168
2018-07-23T15:22:24.915Z,75040
2018-07-23T15:23:33.803Z,72544
2018-07-23T15:24:42.965Z,74560
2018-07-23T15:25:51.847Z,75232
2018-07-23T15:27:00.732Z,73952
2018-07-23T15:28:09.721Z,75360
2018-07-23T15:29:18.880Z,74688
2018-07-23T15:30:27.781Z,71584
2018-07-23T15:31:36.668Z,65440
2018-07-23T15:32:45.556Z,60640
2018-07-23T15:33:54.713Z,63136